- বাংলা English

****Maritime Ports of Chittagong, Cox'sbazar, Mongla and Payra have been advised local cautionary signal no three (R) three.**** Phone: +880 2 9135742, 9123838, 9141437 ## Fax: +880 2 8118230, 9119230, 9103908 ## e-mail: info@bmd.gov.bd, swc@bmd.gov.bd

METAR

VGHS 201600Z 18005KT 3500HZ BKN010 BKN100 27/25 Q1001 TEMPO RA=